Time;durP1;ratioP1;P1;durP2;ratioP2;P2;SDS_P1;SDS_P2;PMS_P1;PMS_P2;Temp;Humidity;BMP_temperature;BMP_pressure;BME280_temperature;BME280_humidity;BME280_pressure;Samples;Min_cycle;Max_cycle;Signal;HPM_P1;HPM_P2
2022/05/22 00:00:23;;;;;;;10.20;4.45;;;7.10;99.90;;;;;;5008976;28;20041;-48
2022/05/22 00:02:50;;;;;;;12.15;4.35;;;7.10;99.90;;;;;;5009088;28;20045;-46
2022/05/22 00:05:18;;;;;;;7.93;2.88;;;7.00;99.90;;;;;;5008735;28;20042;-47
2022/05/22 00:07:44;;;;;;;7.32;3.08;;;7.00;99.90;;;;;;5008652;28;20085;-48
2022/05/22 00:10:12;;;;;;;10.52;3.60;;;7.00;99.90;;;;;;5007299;28;20180;-47
2022/05/22 00:12:39;;;;;;;11.20;4.75;;;7.10;99.90;;;;;;5008352;28;20470;-47
2022/05/22 00:15:05;;;;;;;7.78;4.28;;;6.90;99.90;;;;;;5008258;28;20046;-48
2022/05/22 00:17:31;;;;;;;4.47;2.50;;;6.90;99.90;;;;;;5008520;28;20050;-46
2022/05/22 00:19:56;;;;;;;5.25;2.15;;;7.20;99.90;;;;;;5007350;28;20048;-48
2022/05/22 00:22:22;;;;;;;6.00;1.92;;;7.00;99.90;;;;;;5008679;28;20378;-47
2022/05/22 00:24:48;;;;;;;5.75;2.20;;;7.60;99.90;;;;;;5008437;28;20042;-47
2022/05/22 00:27:13;;;;;;;2.83;1.77;;;7.00;99.90;;;;;;5008091;28;20081;-46
2022/05/22 00:29:39;;;;;;;5.07;2.28;;;7.00;99.90;;;;;;5008448;28;20042;-48
2022/05/22 00:32:06;;;;;;;5.53;2.60;;;6.80;99.90;;;;;;5008443;28;20213;-47
2022/05/22 00:34:32;;;;;;;4.88;2.50;;;6.60;99.90;;;;;;5008652;28;20127;-48
2022/05/22 00:36:58;;;;;;;4.93;2.28;;;6.70;99.90;;;;;;5007579;28;20118;-48
2022/05/22 00:39:23;;;;;;;8.98;2.78;;;6.70;99.90;;;;;;5006756;28;20054;-46
2022/05/22 00:41:52;;;;;;;6.07;2.45;;;6.70;99.90;;;;;;5008544;28;20473;-46
2022/05/22 00:44:19;;;;;;;6.25;2.33;;;6.70;99.90;;;;;;5011997;28;20107;-47
2022/05/22 00:46:45;;;;;;;7.78;1.77;;;6.70;99.90;;;;;;5011645;28;20500;-47
2022/05/22 00:49:24;;;;;;;7.13;2.50;;;6.80;99.90;;;;;;5011189;28;20061;-46
2022/05/22 00:52:15;;;;;;;9.85;3.60;;;6.60;99.90;;;;;;5011625;28;20054;-47
2022/05/22 00:54:45;;;;;;;10.82;3.90;;;6.70;99.90;;;;;;5011719;28;20034;-46
2022/05/22 00:57:23;;;;;;;10.18;4.32;;;;;;;;;;5011496;28;20690;-47
2022/05/22 01:00:10;;;;;;;12.68;4.43;;;6.40;99.90;;;;;;5011856;28;20053;-46
2022/05/22 01:05:21;;;;;;;13.77;4.53;;;6.70;99.90;;;;;;5011317;28;20129;-46
2022/05/22 01:07:46;;;;;;;14.55;5.18;;;6.30;99.90;;;;;;4993796;28;20060;-47
2022/05/22 01:10:14;;;;;;;12.77;4.93;;;6.00;99.90;;;;;;5011556;28;20046;-46
2022/05/22 01:12:43;;;;;;;14.65;5.43;;;6.60;99.90;;;;;;5011719;28;20037;-48
2022/05/22 01:15:10;;;;;;;13.15;5.80;;;6.50;99.90;;;;;;5011659;28;20104;-48
2022/05/22 01:17:55;;;;;;;12.82;5.22;;;;;;;;;;5011667;28;20069;-46
2022/05/22 01:20:20;;;;;;;10.55;4.68;;;6.40;99.90;;;;;;5010469;28;20412;-47
2022/05/22 01:22:46;;;;;;;13.90;5.15;;;6.50;99.90;;;;;;5011484;28;20437;-47
2022/05/22 01:25:12;;;;;;;9.88;5.10;;;6.40;99.90;;;;;;5010894;28;20383;-45
2022/05/22 01:27:39;;;;;;;15.43;5.78;;;6.80;99.90;;;;;;5010917;28;20124;-46
2022/05/22 01:30:06;;;;;;;15.45;5.80;;;6.50;99.90;;;;;;5009282;28;20397;-47
2022/05/22 01:32:36;;;;;;;16.90;5.40;;;6.40;99.90;;;;;;5010607;28;21038;-46
2022/05/22 01:35:02;;;;;;;20.23;6.05;;;6.70;99.90;;;;;;5010791;28;20046;-48
2022/05/22 01:37:28;;;;;;;10.95;5.68;;;6.20;99.90;;;;;;5011371;28;20081;-46
2022/05/22 01:39:54;;;;;;;11.38;5.88;;;6.30;99.90;;;;;;5009453;28;20151;-48
2022/05/22 01:42:19;;;;;;;17.35;6.05;;;6.30;99.90;;;;;;5009255;28;20449;-47
2022/05/22 01:44:45;;;;;;;20.08;6.72;;;6.20;99.90;;;;;;5010822;28;20052;-46
2022/05/22 01:47:11;;;;;;;19.92;6.97;;;6.20;99.90;;;;;;5010296;28;20057;-46
2022/05/22 01:49:37;;;;;;;17.10;6.40;;;6.20;99.90;;;;;;5008685;28;20053;-46
2022/05/22 01:52:03;;;;;;;30.17;8.07;;;6.20;99.90;;;;;;5010896;28;20049;-45
2022/05/22 01:54:28;;;;;;;20.80;7.85;;;6.00;99.90;;;;;;5010194;28;20048;-47
2022/05/22 01:56:54;;;;;;;19.35;6.35;;;6.20;99.90;;;;;;5010388;28;20037;-47
2022/05/22 01:59:20;;;;;;;15.80;6.05;;;6.50;99.90;;;;;;5010231;28;20184;-47
2022/05/22 02:01:45;;;;;;;19.85;6.68;;;6.30;99.90;;;;;;5010517;28;20046;-46
2022/05/22 02:04:11;;;;;;;14.82;5.25;;;7.00;99.90;;;;;;5010176;28;20052;-46
2022/05/22 02:08:19;;;;;;;15.02;5.03;;;6.40;99.90;;;;;;5010342;28;20541;-46
2022/05/22 02:09:25;;;;;;;13.88;5.28;;;6.30;99.90;;;;;;5010046;28;20042;-49
2022/05/22 02:11:51;;;;;;;14.50;5.50;;;6.30;99.90;;;;;;5010301;28;20595;-46
2022/05/22 02:14:17;;;;;;;24.38;6.53;;;7.00;99.90;;;;;;5010328;28;20045;-46
2022/05/22 02:16:43;;;;;;;17.50;6.13;;;6.20;99.90;;;;;;5010398;28;20054;-47
2022/05/22 02:19:10;;;;;;;16.65;6.00;;;6.60;99.90;;;;;;5009937;28;20049;-46
2022/05/22 02:21:36;;;;;;;16.30;6.40;;;6.40;99.90;;;;;;5010448;28;20103;-46
2022/05/22 02:24:03;;;;;;;18.88;6.65;;;6.00;99.90;;;;;;5010056;28;20049;-46
2022/05/22 02:26:28;;;;;;;18.55;6.80;;;6.00;99.90;;;;;;5009148;28;20077;-47
2022/05/22 02:28:54;;;;;;;23.50;7.43;;;6.10;99.90;;;;;;5010131;28;20084;-46
2022/05/22 02:31:20;;;;;;;22.67;7.32;;;6.10;99.90;;;;;;5009141;28;20057;-46
2022/05/22 02:33:45;;;;;;;20.30;7.57;;;6.10;99.90;;;;;;5008516;28;20050;-45
2022/05/22 02:36:13;;;;;;;19.23;7.30;;;6.10;99.90;;;;;;5009443;28;20121;-46
2022/05/22 02:38:40;;;;;;;20.33;8.13;;;6.10;99.90;;;;;;5009390;28;20817;-46
2022/05/22 02:41:16;;;;;;;26.80;7.40;;;6.10;99.90;;;;;;5009818;28;20057;-46
2022/05/22 02:43:42;;;;;;;22.65;7.80;;;6.10;99.90;;;;;;5009540;28;20461;-46
2022/05/22 02:46:12;;;;;;;21.38;8.00;;;6.30;99.90;;;;;;5009370;28;20049;-45
2022/05/22 02:48:39;;;;;;;29.77;9.05;;;6.10;99.90;;;;;;5009147;28;20061;-47
2022/05/22 02:51:05;;;;;;;35.22;11.20;;;6.80;99.90;;;;;;5008259;28;20041;-47
2022/05/22 02:53:30;;;;;;;21.27;9.57;;;6.50;99.90;;;;;;5008585;28;20489;-46
2022/05/22 02:56:05;;;;;;;25.23;11.10;;;6.30;99.90;;;;;;5009211;28;20128;-46
2022/05/22 02:58:30;;;;;;;30.50;11.15;;;6.10;99.90;;;;;;5007538;28;20120;-47
2022/05/22 03:00:56;;;;;;;34.38;11.65;;;6.20;99.90;;;;;;5008201;28;20429;-47
2022/05/22 03:03:22;;;;;;;28.55;11.73;;;6.90;99.90;;;;;;5008836;28;20049;-47
2022/05/22 03:08:33;;;;;;;25.67;9.73;;;6.10;99.90;;;;;;5009262;28;20052;-46
2022/05/22 03:11:03;;;;;;;37.70;12.82;;;6.10;99.90;;;;;;5008759;28;20088;-47
2022/05/22 03:13:29;;;;;;;27.52;11.68;;;6.10;99.90;;;;;;5009214;28;20034;-46
2022/05/22 03:15:54;;;;;;;31.33;11.73;;;6.10;99.90;;;;;;5008950;28;20045;-46
2022/05/22 03:18:20;;;;;;;48.70;13.95;;;6.40;99.90;;;;;;5008395;28;20536;-46
2022/05/22 03:20:46;;;;;;;26.67;11.85;;;6.10;99.90;;;;;;5008819;28;20034;-46
2022/05/22 03:23:13;;;;;;;22.08;8.95;;;6.30;99.90;;;;;;5007857;28;20165;-47
2022/05/22 03:25:40;;;;;;;18.60;7.85;;;6.30;99.90;;;;;;5009126;28;20390;-46
2022/05/22 03:28:06;;;;;;;23.10;7.38;;;6.20;99.90;;;;;;5007601;28;20051;-46
2022/05/22 03:30:32;;;;;;;10.75;5.72;;;6.10;99.90;;;;;;5007864;28;20045;-46
2022/05/22 03:32:58;;;;;;;14.15;5.45;;;6.60;99.90;;;;;;5008999;28;20121;-47
2022/05/22 03:35:24;;;;;;;49.97;8.23;;;6.10;99.90;;;;;;5008686;28;20041;-48
2022/05/22 03:37:49;;;;;;;22.23;5.90;;;6.20;99.90;;;;;;5008842;28;20088;-46
2022/05/22 03:40:15;;;;;;;9.10;4.30;;;6.10;99.90;;;;;;5008892;28;20073;-45
2022/05/22 03:42:41;;;;;;;11.82;4.50;;;6.50;99.90;;;;;;5009196;28;20041;-47
2022/05/22 03:45:07;;;;;;;14.50;4.75;;;6.10;99.90;;;;;;5008679;28;20096;-47
2022/05/22 03:47:33;;;;;;;18.35;6.30;;;6.00;99.90;;;;;;5009121;28;20053;-47
2022/05/22 03:50:04;;;;;;;14.80;5.57;;;6.20;99.90;;;;;;5008735;28;20056;-46
2022/05/22 03:52:33;;;;;;;16.98;7.05;;;6.20;99.90;;;;;;5009019;28;20049;-46
2022/05/22 03:54:59;;;;;;;13.90;7.00;;;6.40;99.90;;;;;;5008949;28;20049;-46
2022/05/22 03:57:24;;;;;;;13.80;6.72;;;6.30;99.90;;;;;;5008652;28;20050;-46
2022/05/22 03:59:50;;;;;;;13.63;6.88;;;6.30;99.90;;;;;;5007617;28;20489;-46
2022/05/22 04:02:16;;;;;;;25.00;9.45;;;6.50;99.90;;;;;;5006938;28;20058;-46
2022/05/22 04:04:41;;;;;;;15.80;8.05;;;6.50;99.90;;;;;;5008893;28;20045;-46
2022/05/22 04:07:07;;;;;;;21.63;9.45;;;6.50;99.90;;;;;;5008734;28;20046;-46
2022/05/22 04:09:33;;;;;;;15.90;8.25;;;6.50;99.90;;;;;;5008860;28;20104;-46
2022/05/22 04:11:59;;;;;;;18.65;8.45;;;6.60;99.90;;;;;;5008123;28;20037;-46
2022/05/22 04:14:25;;;;;;;18.98;8.38;;;6.90;99.90;;;;;;5008882;28;20088;-46
2022/05/22 04:16:51;;;;;;;19.33;9.38;;;7.00;99.90;;;;;;5010188;28;20077;-47
2022/05/22 04:19:17;;;;;;;17.30;8.93;;;7.00;99.90;;;;;;5012255;28;20045;-47
2022/05/22 04:21:43;;;;;;;13.68;7.43;;;7.10;99.90;;;;;;5011952;28;20091;-46
2022/05/22 04:26:53;;;;;;;14.52;7.95;;;7.30;99.90;;;;;;5012408;28;20458;-45
2022/05/22 04:29:19;;;;;;;20.10;7.30;;;7.50;99.90;;;;;;5011813;28;20129;-46
2022/05/22 04:31:45;;;;;;;15.68;8.68;;;8.40;99.90;;;;;;5011012;28;20085;-47
2022/05/22 04:34:11;;;;;;;12.10;7.25;;;7.80;99.90;;;;;;5011903;28;20108;-47
2022/05/22 04:36:36;;;;;;;15.43;7.82;;;8.60;99.90;;;;;;5011816;28;20045;-46
2022/05/22 04:39:02;;;;;;;17.15;7.25;;;8.20;99.90;;;;;;5011589;28;20497;-46
2022/05/22 04:41:28;;;;;;;14.20;8.05;;;8.30;99.90;;;;;;5011782;28;20049;-46
2022/05/22 04:43:53;;;;;;;12.00;7.28;;;9.10;99.90;;;;;;5012063;28;20092;-45
2022/05/22 04:46:19;;;;;;;16.55;9.13;;;8.50;99.90;;;;;;5011483;28;20452;-48
2022/05/22 04:48:45;;;;;;;17.88;7.80;;;8.70;99.90;;;;;;5009966;28;20567;-45
2022/05/22 04:51:10;;;;;;;14.25;7.80;;;9.80;99.90;;;;;;5011385;28;20042;-47
2022/05/22 04:53:36;;;;;;;12.88;7.75;;;9.10;99.90;;;;;;5011169;28;20038;-46
2022/05/22 04:56:03;;;;;;;18.17;8.00;;;9.60;99.90;;;;;;5011362;28;20049;-46
2022/05/22 04:58:29;;;;;;;17.98;8.10;;;8.70;99.90;;;;;;5011246;28;20034;-47
2022/05/22 05:00:55;;;;;;;19.85;9.30;;;8.90;99.90;;;;;;5011711;28;20042;-46
2022/05/22 05:03:21;;;;;;;17.88;7.85;;;8.80;99.90;;;;;;5010715;28;20054;-47
2022/05/22 05:05:57;;;;;;;22.08;10.43;;;9.20;99.90;;;;;;5010958;28;20068;-45
2022/05/22 05:08:24;;;;;;;22.40;8.88;;;9.20;99.90;;;;;;5011124;28;20437;-48
2022/05/22 05:10:51;;;;;;;19.27;9.07;;;;;;;;;;5011230;28;20120;-46
2022/05/22 05:13:18;;;;;;;16.17;8.40;;;9.60;99.90;;;;;;5011324;28;20046;-47
2022/05/22 05:15:44;;;;;;;19.23;10.30;;;10.50;99.90;;;;;;5010996;28;20104;-47
2022/05/22 05:18:09;;;;;;;18.83;9.20;;;11.10;99.90;;;;;;5010733;28;20041;-48
2022/05/22 05:20:37;;;;;;;16.95;7.97;;;11.90;99.90;;;;;;5011092;28;20081;-47
2022/05/22 05:23:05;;;;;;;12.77;7.65;;;12.10;99.90;;;;;;5011072;28;20261;-46
2022/05/22 05:25:31;;;;;;;12.02;7.60;;;12.10;99.90;;;;;;5010681;28;20394;-46
2022/05/22 05:27:57;;;;;;;18.60;7.68;;;11.80;99.90;;;;;;5010221;28;20352;-47
2022/05/22 05:30:22;;;;;;;15.18;6.38;;;12.40;99.90;;;;;;5010767;28;20062;-49
2022/05/22 05:32:57;;;;;;;12.50;6.75;;;15.30;99.90;;;;;;5008990;28;20050;-46
2022/05/22 05:35:23;;;;;;;16.08;6.70;;;13.40;99.90;;;;;;5011570;28;20042;-48
2022/05/22 05:37:48;;;;;;;13.02;5.93;;;13.50;99.90;;;;;;5010494;28;20079;-47
2022/05/22 05:40:14;;;;;;;10.02;6.28;;;13.50;99.90;;;;;;5010870;28;20449;-46
2022/05/22 05:42:40;;;;;;;16.20;5.88;;;13.50;99.90;;;;;;5010267;28;20397;-46
2022/05/22 05:45:08;;;;;;;14.88;6.82;;;14.20;99.90;;;;;;5011103;28;20111;-46
2022/05/22 05:47:33;;;;;;;15.00;6.38;;;16.20;99.90;;;;;;5010374;28;20116;-47
2022/05/22 05:49:59;;;;;;;15.93;6.53;;;18.10;99.90;;;;;;5010574;28;20045;-46
2022/05/22 05:52:25;;;;;;;18.00;6.10;;;19.60;99.90;;;;;;5010319;28;20046;-47
2022/05/22 05:54:51;;;;;;;15.70;5.10;;;19.70;99.90;;;;;;5009881;28;20084;-46
2022/05/22 05:57:17;;;;;;;15.70;5.15;;;21.20;99.90;;;;;;5010948;28;20049;-46
2022/05/22 05:59:43;;;;;;;11.30;4.32;;;22.50;99.90;;;;;;5009829;28;20460;-46
2022/05/22 06:02:13;;;;;;;11.40;4.60;;;23.60;98.60;;;;;;5010652;28;20096;-47
2022/05/22 06:04:39;;;;;;;13.00;4.10;;;24.50;93.50;;;;;;5010177;28;20880;-46
2022/05/22 06:07:05;;;;;;;9.07;3.97;;;25.20;90.80;;;;;;5009337;28;20046;-49
2022/05/22 06:09:31;;;;;;;10.27;3.47;;;24.70;86.60;;;;;;5010279;28;20038;-45
2022/05/22 06:11:57;;;;;;;13.80;4.32;;;23.60;87.80;;;;;;5010411;28;20125;-46
2022/05/22 06:14:23;;;;;;;13.55;3.97;;;22.50;90.70;;;;;;5010061;28;20148;-46
2022/05/22 06:16:50;;;;;;;14.13;4.55;;;21.60;92.30;;;;;;5009826;28;20053;-47
2022/05/22 06:19:53;;;;;;;13.07;3.33;;;21.10;94.20;;;;;;5010102;28;20042;-47
2022/05/22 06:22:02;;;;;;;11.02;3.90;;;21.00;95.20;;;;;;5010021;28;20060;-46
2022/05/22 06:24:28;;;;;;;12.20;4.10;;;21.90;98.70;;;;;;5009727;28;20037;-47
2022/05/22 06:26:53;;;;;;;11.15;3.08;;;23.90;92.60;;;;;;5010051;28;20137;-47
2022/05/22 06:29:19;;;;;;;10.43;3.22;;;24.10;91.60;;;;;;5009796;28;20045;-48
2022/05/22 06:31:44;;;;;;;8.82;3.15;;;25.60;86.70;;;;;;5009335;28;20049;-48
2022/05/22 06:34:10;;;;;;;10.52;4.00;;;26.90;95.60;;;;;;5009958;28;20116;-47
2022/05/22 06:36:36;;;;;;;11.50;3.00;;;27.80;76.80;;;;;;5009282;28;20073;-44
2022/05/22 06:41:45;;;;;;;9.68;2.25;;;29.60;70.60;;;;;;5010069;28;20056;-45
2022/05/22 06:44:11;;;;;;;12.98;3.20;;;30.20;66.80;;;;;;5009321;28;20037;-45
2022/05/22 06:46:37;;;;;;;9.57;3.33;;;30.90;64.50;;;;;;5009254;28;20045;-46
2022/05/22 06:49:02;;;;;;;14.02;3.70;;;31.50;62.20;;;;;;5009361;28;20070;-45
2022/05/22 06:51:28;;;;;;;11.20;3.17;;;32.00;60.50;;;;;;5009483;28;20073;-45
2022/05/22 06:53:54;;;;;;;8.60;2.22;;;32.50;60.10;;;;;;5009156;28;20208;-44
2022/05/22 06:56:19;;;;;;;9.40;2.90;;;32.90;58.00;;;;;;5009492;28;20038;-45
2022/05/22 06:58:45;;;;;;;10.30;2.42;;;33.30;56.40;;;;;;5009108;28;20548;-44
2022/05/22 07:01:16;;;;;;;6.40;2.10;;;33.80;55.00;;;;;;5007815;28;20192;-47
2022/05/22 07:03:42;;;;;;;10.25;2.45;;;34.30;54.80;;;;;;5008863;28;20038;-45
2022/05/22 07:06:08;;;;;;;10.15;2.50;;;34.50;53.40;;;;;;5008909;28;20052;-45
2022/05/22 07:08:34;;;;;;;9.25;2.13;;;34.90;51.90;;;;;;5008522;28;20121;-45
2022/05/22 07:13:43;;;;;;;8.90;1.95;;;35.30;50.10;;;;;;5008814;28;20056;-45
2022/05/22 07:16:09;;;;;;;8.45;2.10;;;35.40;49.70;;;;;;5009303;28;20037;-46
2022/05/22 07:18:35;;;;;;;7.13;1.58;;;35.60;49.50;;;;;;5008809;28;20116;-45
2022/05/22 07:21:01;;;;;;;8.55;1.40;;;36.00;48.40;;;;;;5008687;28;20042;-45
2022/05/22 07:23:26;;;;;;;5.15;1.10;;;36.30;47.30;;;;;;5008737;28;20042;-44
2022/05/22 07:25:53;;;;;;;6.88;1.05;;;36.30;46.20;;;;;;5008713;28;20042;-45
2022/05/22 07:28:19;;;;;;;8.70;1.63;;;36.60;46.40;;;;;;5008728;28;20457;-45
2022/05/22 07:30:45;;;;;;;7.57;1.38;;;36.80;46.10;;;;;;5008600;28;20038;-45
2022/05/22 07:33:11;;;;;;;6.55;1.10;;;36.90;45.10;;;;;;5008653;28;20046;-46
2022/05/22 07:35:37;;;;;;;10.15;1.88;;;37.00;44.20;;;;;;5008862;28;20120;-45
2022/05/22 07:38:03;;;;;;;10.63;1.55;;;37.20;43.80;;;;;;5007713;28;20545;-46
2022/05/22 07:40:30;;;;;;;6.10;1.05;;;37.30;42.60;;;;;;5008564;28;20045;-45
2022/05/22 07:42:56;;;;;;;8.57;1.52;;;37.30;42.90;;;;;;5007589;28;20076;-46
2022/05/22 07:45:24;;;;;;;9.32;1.88;;;37.30;42.90;;;;;;5008310;28;20081;-46
2022/05/22 07:47:51;;;;;;;8.07;1.48;;;37.70;43.30;;;;;;5007956;28;20049;-45
2022/05/22 07:50:17;;;;;;;12.68;2.45;;;37.90;43.60;;;;;;5008429;28;20133;-47
2022/05/22 07:52:49;;;;;;;7.00;1.83;;;38.00;42.50;;;;;;5012894;28;20141;-46
2022/05/22 07:55:18;;;;;;;12.02;1.95;;;38.30;42.10;;;;;;5015039;28;20041;-45
2022/05/22 07:57:49;;;;;;;5.82;1.38;;;38.40;42.10;;;;;;5014839;28;20108;-46
2022/05/22 08:00:17;;;;;;;5.55;1.48;;;38.70;41.30;;;;;;5014559;28;20046;-45
2022/05/22 08:02:43;;;;;;;8.40;1.58;;;38.90;40.90;;;;;;5014723;28;20782;-46
2022/05/22 08:05:10;;;;;;;8.63;2.22;;;38.60;41.10;;;;;;5014668;28;20106;-47
2022/05/22 08:07:36;;;;;;;6.32;1.63;;;38.60;40.10;;;;;;5012267;28;20257;-45
2022/05/22 08:10:04;;;;;;;5.47;1.52;;;38.70;40.00;;;;;;5014687;28;20352;-45
2022/05/22 08:12:45;;;;;;;8.15;1.50;;;39.00;40.50;;;;;;4996981;28;20049;-46
2022/05/22 08:15:13;;;;;;;12.55;1.70;;;39.20;40.40;;;;;;5014868;28;20038;-46
2022/05/22 08:17:39;;;;;;;4.38;0.90;;;39.70;39.90;;;;;;5014830;28;20046;-47
2022/05/22 08:20:14;;;;;;;5.43;1.00;;;39.50;39.60;;;;;;5014604;28;20058;-46
2022/05/22 08:22:40;;;;;;;7.63;1.15;;;38.70;38.70;;;;;;5015001;28;20148;-45
2022/05/22 08:25:07;;;;;;;7.40;1.42;;;37.80;38.90;;;;;;5014600;28;20046;-44
2022/05/22 08:27:34;;;;;;;12.27;1.58;;;37.40;38.50;;;;;;5015011;28;20053;-47
2022/05/22 08:30:00;;;;;;;6.88;0.90;;;37.50;39.50;;;;;;5014909;28;20100;-46
2022/05/22 08:32:26;;;;;;;5.50;1.05;;;37.90;39.60;;;;;;5014383;28;20042;-46
2022/05/22 08:34:54;;;;;;;7.05;0.88;;;38.50;39.90;;;;;;5014671;28;20092;-46
2022/05/22 08:37:19;;;;;;;5.53;0.93;;;39.10;39.60;;;;;;5013621;28;20061;-49
2022/05/22 08:39:45;;;;;;;9.00;2.00;;;39.60;39.30;;;;;;5014295;28;20046;-45
2022/05/22 08:42:18;;;;;;;6.93;1.48;;;40.30;37.90;;;;;;5013911;28;20576;-45
2022/05/22 08:44:47;;;;;;;5.88;1.17;;;40.80;37.80;;;;;;5011870;28;20042;-46
2022/05/22 08:47:30;;;;;;;8.70;1.30;;;41.10;37.00;;;;;;5013429;28;20046;-45
2022/05/22 08:50:04;;;;;;;5.28;0.80;;;41.00;38.30;;;;;;5013942;28;20050;-49
2022/05/22 08:52:45;;;;;;;5.07;1.08;;;39.40;36.50;;;;;;5014531;28;20524;-45
2022/05/22 08:55:14;;;;;;;6.10;1.13;;;37.30;37.60;;;;;;5013661;28;20045;-44
2022/05/22 09:00:42;;;;;;;6.15;0.98;;;34.00;41.40;;;;;;5014601;28;21130;-47
2022/05/22 09:03:36;;;;;;;6.25;0.77;;;33.00;43.20;;;;;;5010752;28;20046;-44
2022/05/22 09:06:05;;;;;;;9.52;1.35;;;32.40;44.40;;;;;;5003302;28;20501;-46
2022/05/22 09:08:46;;;;;;;8.23;0.77;;;33.10;43.80;;;;;;5010653;28;20045;-45
2022/05/22 09:11:35;;;;;;;9.63;1.70;;;34.40;44.50;;;;;;5010927;28;20397;-45
2022/05/22 09:14:24;;;;;;;9.35;1.27;;;35.50;41.40;;;;;;5010892;28;20122;-46
2022/05/22 09:17:15;;;;;;;7.32;0.88;;;36.60;41.50;;;;;;5010982;28;20038;-47
2022/05/22 09:19:46;;;;;;;5.13;1.05;;;37.50;41.00;;;;;;5010781;28;20042;-45
2022/05/22 09:22:11;;;;;;;4.70;0.75;;;38.00;39.70;;;;;;5010946;28;20046;-47
2022/05/22 09:25:08;;;;;;;5.05;0.77;;;37.30;38.90;;;;;;5009931;28;20060;-46
2022/05/22 09:28:11;;;;;;;4.30;0.52;;;36.70;39.20;;;;;;5011154;28;20053;-44
2022/05/22 09:31:19;;;;;;;5.82;0.93;;;37.10;40.70;;;;;;5010641;28;20077;-47
2022/05/22 09:33:44;;;;;;;6.70;1.23;;;36.70;38.80;;;;;;5010192;28;20077;-47
2022/05/22 09:36:36;;;;;;;10.27;1.08;;;36.20;39.20;;;;;;5010279;28;20528;-46
2022/05/22 09:39:36;;;;;;;6.65;1.13;;;36.90;39.00;;;;;;5010181;28;20064;-47
2022/05/22 09:42:21;;;;;;;3.97;0.52;;;38.00;39.30;;;;;;5011118;28;20050;-47
2022/05/22 09:44:57;;;;;;;8.65;1.35;;;38.60;38.70;;;;;;5010521;28;20146;-45
2022/05/22 09:47:51;;;;;;;6.90;1.40;;;38.30;37.00;;;;;;5010456;28;20062;-45
2022/05/22 09:50:43;;;;;;;8.15;1.42;;;38.40;36.90;;;;;;5009493;28;20507;-46
2022/05/22 09:53:17;;;;;;;5.43;1.15;;;38.60;39.50;;;;;;5009789;28;20610;-45
2022/05/22 09:55:46;;;;;;;7.03;0.80;;;38.80;38.90;;;;;;5009907;28;20095;-45
2022/05/22 09:58:51;;;;;;;7.10;1.05;;;39.30;37.40;;;;;;5010112;28;20050;-45
2022/05/22 10:01:24;;;;;;;3.97;0.93;;;38.00;37.00;;;;;;5010020;28;20041;-47
2022/05/22 10:04:09;;;;;;;3.80;0.60;;;35.90;37.60;;;;;;5009813;28;20038;-46
2022/05/22 10:07:01;;;;;;;8.23;1.25;;;34.40;40.30;;;;;;5009863;28;20065;-44
2022/05/22 10:09:51;;;;;;;7.57;0.70;;;33.40;42.30;;;;;;5009922;28;20046;-45
2022/05/22 10:12:44;;;;;;;3.47;0.80;;;33.40;42.10;;;;;;5010038;28;20038;-46
2022/05/22 10:15:17;;;;;;;5.85;0.60;;;33.30;41.80;;;;;;5008864;28;20081;-45
2022/05/22 10:18:16;;;;;;;5.40;0.70;;;33.10;42.50;;;;;;5010070;28;20056;-45
2022/05/22 10:21:08;;;;;;;4.20;0.50;;;33.80;43.00;;;;;;5009458;28;20045;-44
2022/05/22 10:23:55;;;;;;;8.45;1.20;;;35.20;43.10;;;;;;5009385;28;20053;-45
2022/05/22 10:26:30;;;;;;;8.07;1.08;;;36.20;41.50;;;;;;5009117;28;20081;-45
2022/05/22 10:29:04;;;;;;;5.57;0.50;;;36.40;39.90;;;;;;5009303;28;20120;-45
2022/05/22 10:31:45;;;;;;;5.93;1.58;;;36.10;40.40;;;;;;5009739;28;20081;-46
2022/05/22 10:34:17;;;;;;;;;;;35.90;38.90;;;;;;5010093;28;20040;-45
2022/05/22 10:36:50;;;;;;;6.20;1.05;;;35.70;41.50;;;;;;5010134;28;19992;-45
2022/05/22 10:39:16;;;;;;;9.48;1.00;;;35.60;38.60;;;;;;5009677;28;20049;-45
2022/05/22 10:45:10;;;;;;;7.63;0.63;;;35.00;39.20;;;;;;5008660;28;20572;-44
2022/05/22 10:47:38;;;;;;;3.75;0.52;;;32.60;41.80;;;;;;5007735;28;20057;-46
2022/05/22 10:50:26;;;;;;;5.75;1.25;;;32.60;37.50;;;;;;5008057;28;20132;-46
2022/05/22 10:52:53;;;;;;;5.50;0.80;;;31.00;38.90;;;;;;5008141;28;20042;-46
2022/05/22 10:55:36;;;;;;;6.97;0.80;;;30.00;42.00;;;;;;5007551;28;20497;-44
2022/05/22 10:58:08;;;;;;;4.30;0.40;;;28.90;43.10;;;;;;4982370;28;20054;-44
2022/05/22 11:00:34;;;;;;;4.43;0.63;;;27.90;50.10;;;;;;4985003;28;20578;-45
2022/05/22 11:03:11;;;;;;;7.93;0.82;;;25.90;46.60;;;;;;4987953;28;20050;-47
2022/05/22 11:05:37;;;;;;;6.13;0.82;;;26.10;48.20;;;;;;4988390;28;20050;-42
2022/05/22 11:08:02;;;;;;;6.70;0.60;;;25.50;48.60;;;;;;4989095;28;20042;-35
2022/05/22 11:10:40;;;;;;;2.80;0.57;;;25.20;48.70;;;;;;4989461;28;20038;-39
2022/05/22 11:13:19;;;;;;;9.45;0.88;;;24.80;51.10;;;;;;4987989;28;20147;-39
2022/05/22 11:15:45;;;;;;;7.15;0.82;;;24.70;52.60;;;;;;4988669;28;20096;-38
2022/05/22 11:18:23;;;;;;;7.88;0.88;;;24.70;52.10;;;;;;4987775;28;20464;-38
2022/05/22 11:21:09;;;;;;;4.40;0.52;;;24.80;51.50;;;;;;4990167;28;20099;-38
2022/05/22 11:23:53;;;;;;;9.93;1.02;;;24.60;52.10;;;;;;4988003;28;20391;-38
2022/05/22 11:26:56;;;;;;;4.60;0.65;;;24.50;51.10;;;;;;4988159;28;20039;-38
2022/05/22 11:29:28;;;;;;;4.43;0.90;;;24.10;52.60;;;;;;4987824;28;20046;-38
2022/05/22 11:32:15;;;;;;;5.82;0.55;;;24.10;53.10;;;;;;4988665;28;20046;-39
2022/05/22 11:35:09;;;;;;;8.15;1.08;;;23.80;51.50;;;;;;4988640;28;20049;-39
2022/05/22 11:38:01;;;;;;;4.97;0.57;;;23.80;54.60;;;;;;4989111;28;20582;-39
2022/05/22 11:40:43;;;;;;;5.95;0.60;;;23.50;53.80;;;;;;4988589;28;20125;-40
2022/05/22 11:43:30;;;;;;;7.75;0.95;;;22.90;53.50;;;;;;4988619;28;20046;-38
2022/05/22 11:45:59;;;;;;;4.18;0.52;;;22.70;55.30;;;;;;4988808;28;20053;-39
2022/05/22 11:48:43;;;;;;;4.68;0.70;;;22.80;56.50;;;;;;4986526;28;20058;-39
2022/05/22 11:51:43;;;;;;;4.75;0.75;;;22.90;55.30;;;;;;4989097;28;20042;-39
2022/05/22 11:54:27;;;;;;;4.00;0.47;;;22.90;55.80;;;;;;4989553;28;20046;-39
2022/05/22 11:57:15;;;;;;;6.13;1.23;;;22.80;53.70;;;;;;4989919;28;20603;-38
2022/05/22 11:59:59;;;;;;;5.68;0.77;;;22.80;58.00;;;;;;4989965;28;20431;-39
2022/05/22 12:02:51;;;;;;;7.03;1.35;;;22.80;56.40;;;;;;4988610;28;20048;-38
2022/05/22 12:05:29;;;;;;;6.53;1.08;;;22.50;57.90;;;;;;4988850;28;20072;-41
2022/05/22 12:08:13;;;;;;;9.65;2.17;;;22.20;57.60;;;;;;4989161;28;20050;-39
2022/05/22 12:10:45;;;;;;;9.02;1.15;;;21.90;57.20;;;;;;4988599;28;20104;-39
2022/05/22 12:13:33;;;;;;;5.72;0.80;;;21.60;57.70;;;;;;4989252;28;20042;-39
2022/05/22 12:16:29;;;;;;;5.30;0.75;;;21.40;59.10;;;;;;4989070;28;20049;-38
2022/05/22 12:19:01;;;;;;;3.88;0.85;;;21.20;58.30;;;;;;4989285;28;20355;-38
2022/05/22 12:21:41;;;;;;;5.55;0.60;;;20.90;59.30;;;;;;4989230;28;20121;-38
2022/05/22 12:24:25;;;;;;;4.22;1.25;;;20.70;59.90;;;;;;4988414;28;20494;-38
2022/05/22 12:26:51;;;;;;;4.50;0.60;;;20.50;60.60;;;;;;4988780;28;20043;-39
2022/05/22 12:29:34;;;;;;;7.47;0.98;;;20.30;61.60;;;;;;4988609;28;20031;-38
2022/05/22 12:32:12;;;;;;;4.20;0.70;;;20.20;63.70;;;;;;4988679;28;20496;-39
2022/05/22 12:34:44;;;;;;;5.32;0.88;;;20.10;63.90;;;;;;4986710;28;20133;-38
2022/05/22 12:37:15;;;;;;;3.78;0.80;;;20.00;64.00;;;;;;4989501;28;20060;-38
2022/05/22 12:39:56;;;;;;;7.22;1.27;;;20.10;63.80;;;;;;4991159;28;20050;-39
2022/05/22 12:42:30;;;;;;;10.18;1.08;;;20.10;63.00;;;;;;4992698;28;20438;-38
2022/05/22 12:44:56;;;;;;;5.82;0.60;;;20.20;63.60;;;;;;4991991;28;20046;-39
2022/05/22 12:47:21;;;;;;;4.90;1.20;;;20.20;63.10;;;;;;4990324;28;20057;-38
2022/05/22 12:49:57;;;;;;;4.47;0.70;;;20.20;62.60;;;;;;4992031;28;20070;-39
2022/05/22 12:52:28;;;;;;;6.60;1.13;;;20.30;63.60;;;;;;4992278;28;20043;-38
2022/05/22 12:54:59;;;;;;;7.28;0.65;;;20.30;62.70;;;;;;4993077;28;20371;-38
2022/05/22 12:57:25;;;;;;;8.35;0.75;;;20.30;62.90;;;;;;4992039;28;20047;-38
2022/05/22 12:59:59;;;;;;;6.25;0.93;;;20.30;63.50;;;;;;4991978;28;20569;-38
2022/05/22 13:02:46;;;;;;;5.85;1.15;;;20.30;63.50;;;;;;4992271;28;20042;-38
2022/05/22 13:05:33;;;;;;;6.55;1.08;;;20.70;62.50;;;;;;4992049;28;20510;-38
2022/05/22 13:07:58;;;;;;;4.25;0.80;;;21.00;61.40;;;;;;4989697;28;20104;-38
2022/05/22 13:10:45;;;;;;;2.85;0.43;;;21.30;61.80;;;;;;4990991;28;20043;-38
2022/05/22 13:13:20;;;;;;;6.20;0.80;;;21.50;59.50;;;;;;4990681;28;20042;-38
2022/05/22 13:16:06;;;;;;;3.70;0.50;;;21.60;59.20;;;;;;4990786;28;20034;-39
2022/05/22 13:18:33;;;;;;;7.88;1.23;;;21.90;60.40;;;;;;4990805;28;20037;-38
2022/05/22 13:21:02;;;;;;;2.90;0.40;;;22.00;59.00;;;;;;4991856;28;20065;-38
2022/05/22 13:23:39;;;;;;;3.92;0.57;;;22.10;57.80;;;;;;4992029;28;20042;-38
2022/05/22 13:26:07;;;;;;;4.03;0.50;;;22.00;56.00;;;;;;4992065;28;20464;-39